Terminal Aerodrome Forecast
Issued by NWS Burlington, VT

Home | Current Version | Previous Version | Text Only | Print | Product List | Glossary On
Versions: 1 2 3 4 5 6 7 8 9 10 11 12 13 14 15
000
FTUS41 KBTV 251720
TAFBTV
TAF
KBTV 251720Z 2518/2618 18007KT P6SM -SHRA SCT045 OVC080
     FM260600 20012G20KT P6SM SCT030 BKN035
     FM261300 20013G25KT P6SM FEW035 SCT050 BKN120=

USA.gov is the U.S. government's official web portal to all federal, state and local government web resources and services.